createdAt,value
2023-02-07T00:00:50.769Z,34.20
2023-02-07T00:03:56.486Z,22.73
2023-02-07T00:06:58.800Z,26.70
2023-02-07T00:10:01.780Z,26.25
2023-02-07T00:13:06.221Z,23.10
2023-02-07T00:16:09.567Z,31.40
2023-02-07T00:19:11.909Z,28.90
2023-02-07T00:22:14.832Z,32.80
2023-02-07T00:25:18.154Z,31.55
2023-02-07T00:28:20.912Z,36.03
2023-02-07T00:31:27.373Z,32.70
2023-02-07T00:34:31.697Z,28.27
2023-02-07T00:37:34.076Z,32.25
2023-02-07T00:40:38.670Z,32.15
2023-02-07T00:43:45.361Z,24.70
2023-02-07T00:46:48.057Z,27.08
2023-02-07T00:49:50.311Z,32.70
2023-02-07T00:52:53.460Z,28.10
2023-02-07T00:55:55.928Z,30.73
2023-02-07T00:58:59.074Z,26.90
2023-02-07T01:02:01.477Z,27.58
2023-02-07T01:05:07.892Z,27.95
2023-02-07T01:08:10.417Z,28.55
2023-02-07T01:11:16.463Z,45.25
2023-02-07T01:14:18.924Z,22.27
2023-02-07T01:17:21.647Z,28.85
2023-02-07T01:20:24.158Z,25.20
2023-02-07T01:23:26.940Z,23.45
2023-02-07T01:26:29.285Z,26.95
2023-02-07T01:29:31.958Z,25.17
2023-02-07T01:32:34.946Z,27.73
2023-02-07T01:35:39.826Z,29.17
2023-02-07T01:38:43.289Z,20.67
2023-02-07T01:41:45.905Z,21.02
2023-02-07T01:44:51.242Z,30.05
2023-02-07T01:47:55.430Z,28.65
2023-02-07T01:51:05.462Z,17.20
2023-02-07T01:54:11.231Z,25.45
2023-02-07T01:57:17.609Z,24.83
2023-02-07T02:00:20.695Z,28.73
2023-02-07T02:03:27.167Z,19.42
2023-02-07T02:06:32.026Z,17.15
2023-02-07T02:09:34.906Z,22.90
2023-02-07T02:13:05.065Z,23.52
2023-02-07T02:16:36.360Z,21.75
2023-02-07T02:19:51.237Z,21.08
2023-02-07T02:23:17.696Z,23.45
2023-02-07T02:26:43.381Z,30.42
2023-02-07T02:30:24.133Z,23.20
2023-02-07T02:33:42.261Z,25.77
2023-02-07T02:37:10.124Z,24.92
2023-02-07T02:40:15.927Z,31.80
2023-02-07T02:43:59.545Z,17.98
2023-02-07T02:47:03.461Z,26.50
2023-02-07T02:50:12.057Z,18.17
2023-02-07T02:53:16.034Z,23.25
2023-02-07T02:56:40.495Z,28.95
2023-02-07T02:59:58.688Z,19.62
2023-02-07T03:03:29.564Z,26.08
2023-02-07T03:06:41.854Z,24.35
2023-02-07T03:10:18.052Z,27.13
2023-02-07T03:13:58.122Z,25.77
2023-02-07T03:17:29.801Z,22.80
2023-02-07T03:20:46.119Z,25.27
2023-02-07T03:23:52.313Z,27.48
2023-02-07T03:26:59.339Z,19.85
2023-02-07T03:30:07.770Z,25.08
2023-02-07T03:33:13.875Z,26.20
2023-02-07T03:36:29.087Z,22.33
2023-02-07T03:39:33.322Z,23.83
2023-02-07T03:42:49.708Z,25.80
2023-02-07T03:45:52.718Z,22.40
2023-02-07T03:48:56.170Z,22.27
2023-02-07T03:51:59.359Z,21.80
2023-02-07T03:55:02.175Z,18.87
2023-02-07T03:58:07.429Z,17.75
2023-02-07T04:01:10.716Z,17.52
2023-02-07T04:04:13.376Z,26.62
2023-02-07T04:07:15.708Z,18.67
2023-02-07T04:10:18.485Z,27.58
2023-02-07T04:13:20.839Z,25.75
2023-02-07T04:16:23.690Z,24.48
2023-02-07T04:19:28.262Z,18.15
2023-02-07T04:22:32.429Z,22.17
2023-02-07T04:25:34.643Z,14.87
2023-02-07T04:28:37.873Z,21.65
2023-02-07T04:31:42.306Z,25.10
2023-02-07T04:34:45.189Z,21.95
2023-02-07T04:37:47.461Z,22.25
2023-02-07T04:40:50.580Z,23.87
2023-02-07T04:43:53.955Z,24.40
2023-02-07T04:46:57.717Z,15.10
2023-02-07T04:50:00.133Z,18.52
2023-02-07T04:53:02.891Z,22.52
2023-02-07T04:56:05.593Z,22.20
2023-02-07T04:59:08.210Z,27.23
2023-02-07T05:02:10.542Z,24.70
2023-02-07T05:05:13.248Z,17.62
2023-02-07T05:08:15.632Z,22.05
2023-02-07T05:11:19.609Z,28.58
2023-02-07T05:14:21.962Z,19.83
2023-02-07T05:17:24.651Z,29.87
2023-02-07T05:20:27.154Z,20.42
2023-02-07T05:23:29.896Z,19.42
2023-02-07T05:26:34.299Z,26.80
2023-02-07T05:29:37.206Z,23.20
2023-02-07T05:33:03.221Z,24.33
2023-02-07T05:36:11.632Z,23.52
2023-02-07T05:39:16.061Z,24.10
2023-02-07T05:42:19.232Z,22.40
2023-02-07T05:45:21.976Z,17.70
2023-02-07T05:48:24.722Z,31.67
2023-02-07T05:51:27.114Z,23.12
2023-02-07T05:54:30.093Z,27.37
2023-02-07T05:57:32.562Z,20.23
2023-02-07T06:00:35.667Z,24.98
2023-02-07T06:03:38.536Z,25.90
2023-02-07T06:06:43.061Z,25.10
2023-02-07T06:09:46.752Z,20.00
2023-02-07T06:12:49.331Z,26.02
2023-02-07T06:15:52.053Z,22.37
2023-02-07T06:18:54.457Z,20.50
2023-02-07T06:21:57.211Z,19.80
2023-02-07T06:24:59.503Z,29.70
2023-02-07T06:28:03.853Z,28.92
2023-02-07T06:31:06.369Z,27.45
2023-02-07T06:34:09.190Z,42.53
2023-02-07T06:37:12.178Z,31.17
2023-02-07T06:40:14.869Z,30.25
2023-02-07T06:43:20.381Z,31.05
2023-02-07T06:46:23.817Z,25.37
2023-02-07T06:49:26.420Z,34.45
2023-02-07T06:52:29.438Z,24.48
2023-02-07T06:55:36.115Z,27.02
2023-02-07T06:58:39.618Z,31.67
2023-02-07T07:01:43.802Z,29.08
2023-02-07T07:04:47.451Z,31.67
2023-02-07T07:07:51.638Z,25.75
2023-02-07T07:10:56.371Z,41.60
2023-02-07T07:14:02.660Z,38.75
2023-02-07T07:17:07.341Z,34.05
2023-02-07T07:20:10.493Z,34.83
2023-02-07T07:23:13.440Z,27.23
2023-02-07T07:26:16.279Z,33.25
2023-02-07T07:29:20.526Z,34.55
2023-02-07T07:32:33.680Z,34.28
2023-02-07T07:35:38.393Z,39.38
2023-02-07T07:38:44.514Z,46.17
2023-02-07T07:44:55.959Z,33.38
2023-02-07T07:48:01.291Z,37.20
2023-02-07T07:51:05.534Z,32.45
2023-02-07T07:54:08.514Z,35.80
2023-02-07T07:57:10.956Z,35.15
2023-02-07T08:00:14.283Z,46.00
2023-02-07T08:03:17.622Z,36.85
2023-02-07T08:06:21.766Z,33.63
2023-02-07T08:09:24.262Z,28.25
2023-02-07T08:12:31.398Z,33.13
2023-02-07T08:15:34.166Z,32.63
2023-02-07T08:18:40.951Z,30.42
2023-02-07T08:22:00.597Z,34.60
2023-02-07T10:31:12.327Z,30.50
2023-02-07T10:34:28.377Z,33.60
2023-02-07T10:37:38.491Z,27.00
2023-02-07T10:41:08.732Z,29.30
2023-02-07T10:44:18.329Z,25.15
2023-02-07T10:47:21.242Z,29.80
2023-02-07T10:50:30.164Z,23.10
2023-02-07T10:54:01.644Z,24.70
2023-02-07T10:57:17.303Z,28.58
2023-02-07T11:00:26.727Z,19.00
2023-02-07T11:03:30.925Z,24.00
2023-02-07T11:06:36.539Z,25.08
2023-02-07T11:09:39.518Z,28.73
2023-02-07T11:12:47.988Z,26.50
2023-02-07T11:16:08.734Z,26.40
2023-02-07T11:19:20.438Z,22.05
2023-02-07T11:22:25.565Z,27.87
2023-02-07T11:25:36.994Z,30.33
2023-02-07T11:28:39.769Z,21.37
2023-02-07T11:31:44.822Z,22.08
2023-02-07T11:34:54.545Z,26.73
2023-02-07T11:38:05.415Z,28.40
2023-02-07T11:41:23.283Z,33.80
2023-02-07T11:44:29.835Z,30.30
2023-02-07T11:47:35.578Z,25.88
2023-02-07T11:50:43.421Z,29.92
2023-02-07T11:53:53.029Z,34.58
2023-02-07T11:57:06.426Z,23.65
2023-02-07T12:00:26.038Z,32.38
2023-02-07T12:03:42.093Z,28.02
2023-02-07T12:07:01.317Z,35.42
2023-02-07T12:10:15.960Z,27.60
2023-02-07T12:13:29.684Z,27.02
2023-02-07T12:16:41.266Z,31.90
2023-02-07T12:20:12.235Z,23.70
2023-02-07T12:23:46.547Z,30.65
2023-02-07T12:27:12.401Z,25.80
2023-02-07T12:30:30.922Z,29.17
2023-02-07T12:33:55.707Z,21.15
2023-02-07T12:37:06.192Z,28.40
2023-02-07T12:40:37.473Z,23.85
2023-02-07T12:43:48.424Z,26.75
2023-02-07T12:47:38.275Z,40.33
2023-02-07T12:51:04.900Z,22.77
2023-02-07T12:54:40.123Z,23.60
2023-02-07T12:58:04.795Z,27.83
2023-02-07T13:01:23.120Z,32.45
2023-02-07T13:04:46.784Z,28.38
2023-02-07T13:08:00.053Z,21.75
2023-02-07T13:11:20.737Z,24.12
2023-02-07T13:14:53.543Z,24.70
2023-02-07T13:18:26.205Z,28.48
2023-02-07T13:21:53.422Z,27.70
2023-02-07T13:24:56.211Z,27.35
2023-02-07T13:28:04.190Z,26.73
2023-02-07T13:31:11.462Z,25.30
2023-02-07T13:34:31.932Z,26.23
2023-02-07T13:38:20.456Z,30.62
2023-02-07T13:41:41.628Z,26.20
2023-02-07T13:44:46.851Z,35.28
2023-02-07T13:48:29.936Z,31.50
2023-02-07T13:51:52.927Z,29.00
2023-02-07T13:55:22.527Z,27.80
2023-02-07T13:59:20.931Z,26.73
2023-02-07T14:02:23.398Z,30.33
2023-02-07T14:05:32.394Z,26.27
2023-02-07T14:08:35.866Z,25.83
2023-02-07T14:11:47.410Z,28.77
2023-02-07T14:15:02.123Z,28.17
2023-02-07T14:18:45.009Z,29.50
2023-02-07T14:22:19.323Z,32.17
2023-02-07T14:25:40.386Z,27.00
2023-02-07T14:28:46.152Z,28.35
2023-02-07T14:31:50.191Z,29.65
2023-02-07T14:34:58.597Z,23.52
2023-02-07T14:38:05.800Z,25.40
2023-02-07T14:41:16.737Z,32.38
2023-02-07T14:44:32.906Z,24.17
2023-02-07T14:47:36.974Z,29.17
2023-02-07T14:50:39.935Z,32.22
2023-02-07T14:53:45.393Z,25.55
2023-02-07T14:56:51.204Z,31.02
2023-02-07T15:00:07.561Z,28.08
2023-02-07T15:03:19.013Z,33.97
2023-02-07T15:06:31.953Z,31.75
2023-02-07T15:09:35.124Z,31.12
2023-02-07T15:12:37.325Z,24.95
2023-02-07T15:15:51.310Z,27.62
2023-02-07T15:18:55.178Z,25.20
2023-02-07T15:21:58.182Z,24.33
2023-02-07T15:25:03.598Z,27.45
2023-02-07T15:28:25.358Z,29.92
2023-02-07T15:31:29.614Z,26.00
2023-02-07T15:34:35.113Z,28.35
2023-02-07T15:37:39.509Z,25.88
2023-02-07T15:40:42.615Z,27.30
2023-02-07T15:44:02.856Z,28.52
2023-02-07T15:47:07.763Z,26.27
2023-02-07T15:50:14.189Z,30.37
2023-02-07T15:53:24.139Z,24.37
2023-02-07T15:59:33.675Z,28.80
2023-02-07T16:02:39.910Z,35.45
2023-02-07T16:05:42.698Z,25.92
2023-02-07T16:08:45.421Z,27.13
2023-02-07T16:11:48.214Z,37.75
2023-02-07T16:14:50.685Z,25.35
2023-02-07T16:17:54.086Z,36.72
2023-02-07T16:20:56.409Z,32.40
2023-02-07T16:24:08.530Z,29.48
2023-02-07T16:27:31.527Z,30.10
2023-02-07T16:30:38.235Z,34.88
2023-02-07T16:33:41.179Z,37.78
2023-02-07T16:36:44.574Z,52.00
2023-02-07T16:39:47.193Z,49.85
2023-02-07T16:42:52.836Z,51.90
2023-02-07T16:45:55.198Z,54.55
2023-02-07T16:48:58.125Z,63.60
2023-02-07T16:52:00.595Z,56.95
2023-02-07T16:55:03.377Z,56.58
2023-02-07T16:58:07.319Z,64.85
2023-02-07T17:01:18.099Z,60.35
2023-02-07T17:04:21.740Z,41.05
2023-02-07T17:07:25.263Z,49.67
2023-02-07T17:10:32.638Z,46.08
2023-02-07T17:13:35.553Z,43.83
2023-02-07T17:16:38.403Z,50.03
2023-02-07T17:19:41.320Z,49.67
2023-02-07T17:22:43.666Z,47.20
2023-02-07T17:25:47.790Z,50.30
2023-02-07T17:28:51.595Z,50.33
2023-02-07T17:31:54.373Z,55.85
2023-02-07T17:34:56.688Z,54.13
2023-02-07T17:38:00.240Z,48.65
2023-02-07T17:41:02.712Z,46.45
2023-02-07T17:44:06.237Z,52.55
2023-02-07T17:47:09.532Z,53.97
2023-02-07T17:50:22.296Z,55.58
2023-02-07T17:53:24.964Z,44.40
2023-02-07T17:56:32.300Z,46.13
2023-02-07T17:59:34.858Z,42.72
2023-02-07T18:02:37.635Z,66.75
2023-02-07T18:05:42.809Z,56.90
2023-02-07T18:08:47.136Z,53.35
2023-02-07T18:11:50.542Z,62.08
2023-02-07T18:14:53.211Z,63.55
2023-02-07T18:17:59.356Z,66.93
2023-02-07T18:21:03.806Z,66.78
2023-02-07T18:24:07.074Z,52.47
2023-02-07T18:27:09.579Z,72.10
2023-02-07T18:30:15.288Z,71.45
2023-02-07T18:33:19.454Z,67.95
2023-02-07T18:36:26.762Z,63.45
2023-02-07T18:39:29.711Z,59.40
2023-02-07T18:42:32.889Z,59.88
2023-02-07T18:45:38.108Z,66.22
2023-02-07T18:48:41.134Z,71.03
2023-02-07T18:51:44.189Z,70.62
2023-02-07T18:54:47.192Z,54.70
2023-02-07T18:57:50.307Z,48.30
2023-02-07T19:00:53.752Z,61.42
2023-02-07T19:03:58.568Z,59.97
2023-02-07T19:07:02.222Z,60.58
2023-02-07T19:10:05.781Z,62.25
2023-02-07T19:13:09.979Z,57.22
2023-02-07T19:16:18.448Z,56.92
2023-02-07T19:19:21.847Z,64.90
2023-02-07T19:22:35.226Z,49.95
2023-02-07T19:25:47.619Z,57.20
2023-02-07T19:28:52.778Z,66.55
2023-02-07T19:32:01.017Z,59.55
2023-02-07T19:35:03.389Z,65.68
2023-02-07T19:38:07.187Z,58.40
2023-02-07T19:41:10.025Z,54.17
2023-02-07T19:44:13.157Z,68.80
2023-02-07T19:47:15.743Z,53.92
2023-02-07T19:50:20.221Z,48.60
2023-02-07T19:53:22.759Z,47.28
2023-02-07T19:56:27.701Z,55.67
2023-02-07T19:59:30.472Z,54.58
2023-02-07T20:02:33.156Z,58.03
2023-02-07T20:05:35.894Z,62.83
2023-02-07T20:08:39.453Z,54.15
2023-02-07T20:11:41.985Z,62.10
2023-02-07T20:14:44.298Z,51.95
2023-02-07T20:17:47.001Z,49.50
2023-02-07T20:20:55.744Z,50.58
2023-02-07T20:24:00.981Z,57.83
2023-02-07T20:27:03.532Z,51.47
2023-02-07T20:30:07.008Z,53.38
2023-02-07T20:33:09.557Z,54.05
2023-02-07T20:36:15.285Z,52.97
2023-02-07T20:39:20.487Z,58.40
2023-02-07T20:42:23.603Z,57.88
2023-02-07T20:45:28.517Z,54.47
2023-02-07T20:48:31.032Z,55.08
2023-02-07T20:51:33.799Z,60.83
2023-02-07T20:54:36.628Z,72.75
2023-02-07T20:57:39.297Z,54.25
2023-02-07T21:00:43.371Z,53.67
2023-02-07T21:03:46.858Z,65.62
2023-02-07T21:06:50.592Z,54.85
2023-02-07T21:09:53.108Z,65.03
2023-02-07T21:12:56.017Z,59.40
2023-02-07T21:16:03.217Z,58.42
2023-02-07T21:19:06.151Z,59.80
2023-02-07T21:22:08.760Z,68.62
2023-02-07T21:25:12.575Z,58.85
2023-02-07T21:28:15.272Z,60.10
2023-02-07T21:31:22.318Z,57.90
2023-02-07T21:34:25.558Z,59.55
2023-02-07T21:37:28.645Z,60.17
2023-02-07T21:40:30.852Z,57.53
2023-02-07T21:43:33.857Z,56.63
2023-02-07T21:46:39.845Z,60.03
2023-02-07T21:49:43.733Z,55.25
2023-02-07T21:52:45.994Z,68.35
2023-02-07T21:55:49.118Z,52.42
2023-02-07T21:59:05.811Z,54.13
2023-02-07T22:02:12.961Z,55.22
2023-02-07T22:05:15.979Z,64.25
2023-02-07T22:08:18.493Z,51.78
2023-02-07T22:11:22.273Z,57.58
2023-02-07T22:14:30.053Z,68.05
2023-02-07T22:17:32.586Z,55.15
2023-02-07T22:20:35.142Z,55.10
2023-02-07T22:23:37.807Z,59.85
2023-02-07T22:26:40.521Z,69.43
2023-02-07T22:29:43.096Z,66.00
2023-02-07T22:32:45.789Z,61.78
2023-02-07T22:35:48.619Z,72.22
2023-02-07T22:38:51.244Z,70.00
2023-02-07T22:41:57.011Z,70.15
2023-02-07T22:44:59.725Z,59.60
2023-02-07T22:48:03.009Z,69.12
2023-02-07T22:51:36.276Z,61.55
2023-02-07T22:54:38.886Z,56.05
2023-02-07T22:57:41.436Z,61.53
2023-02-07T23:00:44.583Z,56.83
2023-02-07T23:03:47.416Z,58.55
2023-02-07T23:06:51.364Z,53.55
2023-02-07T23:09:54.675Z,59.45
2023-02-07T23:12:57.347Z,50.65
2023-02-07T23:16:00.130Z,60.10
2023-02-07T23:19:19.104Z,63.63
2023-02-07T23:22:21.909Z,51.37
2023-02-07T23:25:24.456Z,56.40
2023-02-07T23:28:27.255Z,54.25
2023-02-07T23:31:29.978Z,60.60
2023-02-07T23:34:32.632Z,65.18
2023-02-07T23:37:36.785Z,59.47
2023-02-07T23:40:39.429Z,68.78
2023-02-07T23:43:42.725Z,66.40
2023-02-07T23:46:44.982Z,65.80
2023-02-07T23:49:49.790Z,65.45
2023-02-07T23:52:52.694Z,59.88
2023-02-07T23:55:58.125Z,60.90
2023-02-07T23:59:00.744Z,55.90
